Time;durP1;ratioP1;P1;durP2;ratioP2;P2;SDS_P1;SDS_P2;PMS_P1;PMS_P2;Temp;Humidity;BMP_temperature;BMP_pressure;BME280_temperature;BME280_humidity;BME280_pressure;Samples;Min_cycle;Max_cycle;Signal;HPM_P1;HPM_P2
2023/08/26 00:00:29;;;;;;;;;;;;;;;30.46;47.00;99534.25;4468189;32;33207;-76
2023/08/26 00:02:57;;;;;;;;;;;;;;;30.65;46.70;99529.00;4468204;32;34087;-76
2023/08/26 00:05:24;;;;;;;;;;;;;;;31.02;45.94;99530.13;4464004;32;33415;-76
2023/08/26 00:07:52;;;;;;;;;;;;;;;30.46;47.39;99545.81;4463910;32;34993;-76
2023/08/26 00:10:20;;;;;;;;;;;;;;;31.22;45.63;99542.63;4468856;32;33711;-76
2023/08/26 00:12:47;;;;;;;;;;;;;;;31.00;46.30;99538.19;4467780;32;33655;-76
2023/08/26 00:15:14;;;;;;;;;;;;;;;30.47;47.35;99528.84;4466495;32;35111;-76
2023/08/26 00:17:42;;;;;;;;;;;;;;;30.88;46.40;99528.00;4463614;32;34610;-76
2023/08/26 00:20:09;;;;;;;;;;;;;;;30.91;46.36;99527.94;4466921;32;33232;-76
2023/08/26 00:22:37;;;;;;;;;;;;;;;30.49;47.48;99526.09;4467632;32;34864;-76
2023/08/26 00:25:04;;;;;;;;;;;;;;;30.28;47.90;99518.00;4467729;32;35502;-76
2023/08/26 00:27:32;;;;;;;;;;;;;;;30.72;46.93;99512.63;4467518;32;34417;-76
2023/08/26 00:29:59;;;;;;;;;;;;;;;30.18;48.59;99516.66;4467552;32;33868;-76
2023/08/26 00:32:27;;;;;;;;;;;;;;;30.27;48.47;99526.97;4467805;32;34944;-76
2023/08/26 00:34:55;;;;;;;;;;;;;;;30.51;48.00;99529.59;4466796;32;34081;-76
2023/08/26 00:37:22;;;;;;;;;;;;;;;30.29;48.21;99525.09;4467270;32;34234;-76
2023/08/26 00:39:50;;;;;;;;;;;;;;;30.27;48.30;99526.97;4465894;32;33125;-76
2023/08/26 00:42:17;;;;;;;;;;;;;;;29.99;49.21;99533.38;4466648;32;32885;-76
2023/08/26 00:44:44;;;;;;;;;;;;;;;30.33;48.15;99532.09;4466765;32;34761;-76
2023/08/26 00:47:12;;;;;;;;;;;;;;;30.78;46.66;99528.41;4465197;32;35087;-76
2023/08/26 00:49:39;;;;;;;;;;;;;;;30.59;47.18;99532.78;4462110;32;34377;-77
2023/08/26 00:52:06;;;;;;;;;;;;;;;30.37;47.37;99525.69;4468286;32;32590;-76
2023/08/26 00:54:35;;;;;;;;;;;;;;;30.77;46.68;99528.47;4467052;32;33920;-76
2023/08/26 00:57:04;;;;;;;;;;;;;;;30.69;47.18;99539.50;4466669;32;34561;-76
2023/08/26 00:59:31;;;;;;;;;;;;;;;29.52;50.05;99553.88;4460699;32;33264;-76
2023/08/26 01:01:59;;;;;;;;;;;;;;;30.03;48.88;99565.31;4467911;32;34580;-77
2023/08/26 01:04:28;;;;;;;;;;;;;;;29.72;49.33;99562.03;4467297;32;34245;-76
2023/08/26 01:06:55;;;;;;;;;;;;;;;30.23;47.99;99573.44;4448981;32;33874;-76
2023/08/26 01:09:23;;;;;;;;;;;;;;;30.03;48.72;99570.66;4467585;32;33594;-76
2023/08/26 01:11:50;;;;;;;;;;;;;;;30.18;48.30;99560.25;4467789;32;34037;-76
2023/08/26 01:14:30;;;;;;;;;;;;;;;30.07;48.67;99556.25;4454464;32;34101;-76
2023/08/26 01:16:57;;;;;;;;;;;;;;;30.49;47.61;99563.53;4464825;32;34175;-76
2023/08/26 01:19:28;;;;;;;;;;;;;;;30.24;48.11;99559.13;4465667;32;33192;-77
2023/08/26 01:21:56;;;;;;;;;;;;;;;30.37;47.66;99563.09;4467185;32;34118;-76
2023/08/26 01:24:24;;;;;;;;;;;;;;;29.67;49.59;99564.00;4466347;32;34259;-76
2023/08/26 01:26:52;;;;;;;;;;;;;;;29.67;49.44;99568.44;4462479;32;35155;-76
2023/08/26 01:29:19;;;;;;;;;;;;;;;30.19;48.16;99561.09;4467588;32;33213;-76
2023/08/26 01:31:48;;;;;;;;;;;;;;;30.32;47.46;99557.03;4465078;32;34060;-76
2023/08/26 01:34:22;;;;;;;;;;;;;;;30.36;47.38;99558.66;4457553;32;35058;-76
2023/08/26 01:36:50;;;;;;;;;;;;;;;30.47;46.97;99560.03;4460603;32;34552;-76
2023/08/26 01:39:17;;;;;;;;;;;;;;;30.42;47.04;99556.69;4466458;32;34307;-76
2023/08/26 01:41:51;;;;;;;;;;;;;;;30.53;46.76;99549.09;4466337;32;34185;-76
2023/08/26 01:44:18;;;;;;;;;;;;;;;29.59;49.54;99534.03;4468124;32;32708;-76
2023/08/26 01:46:46;;;;;;;;;;;;;;;30.37;47.66;99525.69;4467579;32;34941;-76
2023/08/26 01:49:14;;;;;;;;;;;;;;;30.01;48.59;99524.47;4467570;32;34323;-76
2023/08/26 01:51:41;;;;;;;;;;;;;;;29.43;50.40;99532.88;4468002;32;34069;-76
2023/08/26 01:54:08;;;;;;;;;;;;;;;29.68;49.85;99532.81;4455685;32;34658;-76
2023/08/26 01:56:36;;;;;;;;;;;;;;;29.20;51.40;99529.25;4467034;32;34487;-76
2023/08/26 01:59:04;;;;;;;;;;;;;;;29.69;50.15;99534.53;4470257;32;34349;-76
2023/08/26 02:01:33;;;;;;;;;;;;;;;29.62;50.17;99538.41;4469994;32;34045;-76
2023/08/26 02:04:01;;;;;;;;;;;;;;;28.73;52.95;99532.62;4469651;32;33955;-76
2023/08/26 02:06:28;;;;;;;;;;;;;;;28.91;52.64;99543.56;4468793;32;36835;-76
2023/08/26 02:08:55;;;;;;;;;;;;;;;28.88;52.42;99530.34;4469762;32;32924;-76
2023/08/26 02:11:23;;;;;;;;;;;;;;;29.01;51.12;99527.22;4470201;32;34334;-76
2023/08/26 02:13:52;;;;;;;;;;;;;;;30.12;48.43;99516.91;4469896;32;34058;-76
2023/08/26 02:16:19;;;;;;;;;;;;;;;30.13;49.18;99513.28;4469971;32;33958;-76
2023/08/26 02:18:47;;;;;;;;;;;;;;;30.18;49.03;99512.16;4469452;32;33456;-76
2023/08/26 02:21:14;;;;;;;;;;;;;;;30.03;49.39;99517.25;4469012;32;34296;-76
2023/08/26 02:23:42;;;;;;;;;;;;;;;30.12;49.17;99511.56;4469700;32;34149;-76
2023/08/26 02:26:09;;;;;;;;;;;;;;;29.06;52.04;99512.84;4468994;32;34431;-77
2023/08/26 02:28:36;;;;;;;;;;;;;;;29.53;50.78;99508.44;4469724;32;33997;-77
2023/08/26 02:31:03;;;;;;;;;;;;;;;30.46;47.73;99504.84;4469716;32;33863;-77
2023/08/26 02:33:31;;;;;;;;;;;;;;;30.37;48.08;99504.31;4463765;32;34253;-77
2023/08/26 02:35:58;;;;;;;;;;;;;;;30.48;47.86;99502.97;4467904;32;35664;-76
2023/08/26 02:38:26;;;;;;;;;;;;;;;30.72;47.03;99507.28;4463693;32;33301;-76
2023/08/26 02:40:54;;;;;;;;;;;;;;;30.45;47.52;99498.63;4469696;32;34696;-76
2023/08/26 02:43:21;;;;;;;;;;;;;;;30.32;47.91;99492.91;4466709;32;34089;-77
2023/08/26 02:45:53;;;;;;;;;;;;;;;30.62;47.02;99500.59;4469721;32;33825;-77
2023/08/26 02:48:21;;;;;;;;;;;;;;;30.36;48.08;99499.88;4466566;32;33701;-77
2023/08/26 02:50:58;;;;;;;;;;;;;;;30.37;48.02;99501.62;4469899;32;34764;-76
2023/08/26 02:53:26;;;;;;;;;;;;;;;30.60;47.48;99502.47;4468495;32;34860;-77
2023/08/26 02:55:53;;;;;;;;;;;;;;;30.60;47.56;99501.59;4468581;32;35093;-77
2023/08/26 02:58:21;;;;;;;;;;;;;;;30.71;47.20;99508.25;4469484;32;33409;-77
2023/08/26 03:00:49;;;;;;;;;;;;;;;30.97;46.09;99500.91;4469420;32;34780;-77
2023/08/26 03:03:16;;;;;;;;;;;;;;;30.75;46.50;99499.16;4469121;32;34006;-77
2023/08/26 03:05:43;;;;;;;;;;;;;;;30.29;47.76;99513.50;4468383;32;34156;-77
2023/08/26 03:08:11;;;;;;;;;;;;;;;29.92;48.89;99501.66;4465503;32;33677;-77
2023/08/26 03:10:38;;;;;;;;;;;;;;;30.19;48.17;99507.69;4470110;32;33567;-77
2023/08/26 03:13:07;;;;;;;;;;;;;;;29.38;50.40;99509.00;4469501;32;34166;-76
2023/08/26 03:15:34;;;;;;;;;;;;;;;30.23;48.46;99508.44;4469527;32;33456;-77
2023/08/26 03:18:02;;;;;;;;;;;;;;;29.94;48.88;99503.34;4469463;32;33246;-77
2023/08/26 03:20:29;;;;;;;;;;;;;;;30.17;48.17;99509.53;4469567;32;34873;-76
2023/08/26 03:22:57;;;;;;;;;;;;;;;29.97;48.42;99508.53;4469060;32;33957;-77
2023/08/26 03:25:27;;;;;;;;;;;;;;;29.49;49.73;99521.97;4469358;32;34316;-77
2023/08/26 03:27:54;;;;;;;;;;;;;;;29.76;49.36;99514.72;4468801;32;33591;-77
2023/08/26 03:30:22;;;;;;;;;;;;;;;29.09;50.93;99516.28;4469505;32;33969;-77
2023/08/26 03:32:50;;;;;;;;;;;;;;;29.67;49.47;99509.72;4467542;32;34475;-77
2023/08/26 03:35:17;;;;;;;;;;;;;;;30.22;47.95;99512.91;4460352;32;35105;-77
2023/08/26 03:37:44;;;;;;;;;;;;;;;30.25;47.55;99502.12;4469807;32;33001;-77
2023/08/26 03:40:13;;;;;;;;;;;;;;;30.04;47.68;99502.97;4463873;32;34243;-76
2023/08/26 03:42:41;;;;;;;;;;;;;;;30.50;46.68;99501.09;4469449;32;33864;-77
2023/08/26 03:45:08;;;;;;;;;;;;;;;30.41;46.76;99501.50;4468987;32;33910;-77
2023/08/26 03:47:36;;;;;;;;;;;;;;;30.29;47.01;99506.41;4469440;32;34395;-77
2023/08/26 03:50:04;;;;;;;;;;;;;;;30.07;47.77;99508.19;4465820;32;33978;-77
2023/08/26 03:52:32;;;;;;;;;;;;;;;29.76;48.66;99496.03;4468542;32;34032;-77
2023/08/26 03:54:59;;;;;;;;;;;;;;;29.85;48.58;99508.19;4469056;32;34747;-77
2023/08/26 03:57:26;;;;;;;;;;;;;;;29.83;48.62;99494.88;4468965;32;33328;-77
2023/08/26 03:59:55;;;;;;;;;;;;;;;29.79;48.60;99498.59;4468355;32;34228;-77
2023/08/26 04:02:23;;;;;;;;;;;;;;;29.80;48.84;99500.34;4468513;32;34221;-77
2023/08/26 04:04:50;;;;;;;;;;;;;;;29.80;48.77;99500.34;4469150;32;35123;-77
2023/08/26 04:07:17;;;;;;;;;;;;;;;29.71;49.11;99506.00;4468027;32;33669;-76
2023/08/26 04:09:45;;;;;;;;;;;;;;;29.36;49.92;99500.19;4465473;32;34617;-77
2023/08/26 04:12:13;;;;;;;;;;;;;;;29.65;49.34;99503.56;4468309;32;34760;-77
2023/08/26 04:14:40;;;;;;;;;;;;;;;29.94;48.57;99503.34;4469658;32;34425;-77
2023/08/26 04:17:08;;;;;;;;;;;;;;;29.82;48.86;99506.47;4462244;32;33451;-77
2023/08/26 04:19:36;;;;;;;;;;;;;;;30.09;48.06;99501.84;4462133;32;34839;-77
2023/08/26 04:22:04;;;;;;;;;;;;;;;29.93;48.22;99517.62;4468730;32;34338;-77
2023/08/26 04:24:33;;;;;;;;;;;;;;;30.19;47.68;99507.69;4467842;32;34197;-77
2023/08/26 04:27:00;;;;;;;;;;;;;;;30.29;47.46;99509.06;4468006;32;33527;-77
2023/08/26 04:29:27;;;;;;;;;;;;;;;29.87;48.59;99515.19;4468318;32;33996;-77
2023/08/26 04:31:55;;;;;;;;;;;;;;;30.36;47.40;99518.56;4467591;32;34960;-77
2023/08/26 04:34:22;;;;;;;;;;;;;;;30.79;46.13;99513.25;4458418;32;34882;-77
2023/08/26 04:36:50;;;;;;;;;;;;;;;30.86;45.82;99513.84;4467560;32;32924;-77
2023/08/26 04:39:20;;;;;;;;;;;;;;;31.02;45.60;99509.59;4467499;32;34954;-76
2023/08/26 04:41:49;;;;;;;;;;;;;;;30.85;45.86;99507.63;4467607;32;34098;-77
2023/08/26 04:44:17;;;;;;;;;;;;;;;29.32;50.05;99518.13;4461166;32;34482;-76
2023/08/26 04:46:44;;;;;;;;;;;;;;;29.69;49.37;99513.19;4464017;32;32063;-77
2023/08/26 04:49:12;;;;;;;;;;;;;;;29.71;49.53;99527.34;4463949;32;34165;-76
2023/08/26 04:51:39;;;;;;;;;;;;;;;29.95;48.79;99515.75;4462088;32;33639;-77
2023/08/26 04:54:07;;;;;;;;;;;;;;;30.08;48.67;99515.28;4463011;32;34129;-76
2023/08/26 04:56:34;;;;;;;;;;;;;;;30.24;48.20;99520.87;4458164;32;33509;-76
2023/08/26 04:59:02;;;;;;;;;;;;;;;30.09;48.79;99519.69;4461109;32;34964;-77
2023/08/26 05:01:29;;;;;;;;;;;;;;;29.93;49.13;99522.97;4457346;32;33754;-76
2023/08/26 05:03:57;;;;;;;;;;;;;;;29.98;49.06;99518.31;4462669;32;34998;-77
2023/08/26 05:06:24;;;;;;;;;;;;;;;30.12;48.76;99516.91;4463992;32;33459;-76
2023/08/26 05:08:51;;;;;;;;;;;;;;;29.85;49.29;99514.38;4464396;32;34782;-77
2023/08/26 05:11:19;;;;;;;;;;;;;;;29.82;49.38;99525.16;4467514;32;34084;-77
2023/08/26 05:13:46;;;;;;;;;;;;;;;30.05;48.97;99515.41;4462378;32;34415;-76
2023/08/26 05:16:16;;;;;;;;;;;;;;;29.82;49.53;99511.81;4464977;32;33679;-77
2023/08/26 05:18:44;;;;;;;;;;;;;;;30.43;48.09;99510.34;4464164;32;34842;-76
2023/08/26 05:21:12;;;;;;;;;;;;;;;30.10;48.96;99513.41;4466289;32;34183;-77
2023/08/26 05:23:39;;;;;;;;;;;;;;;30.18;48.86;99516.66;4466582;32;34772;-77
2023/08/26 05:26:07;;;;;;;;;;;;;;;30.34;48.21;99520.44;4461166;32;33546;-76
2023/08/26 05:28:34;;;;;;;;;;;;;;;30.30;48.38;99520.63;4466462;32;32556;-77
2023/08/26 05:31:02;;;;;;;;;;;;;;;30.56;47.90;99512.41;4467106;32;34122;-77
2023/08/26 05:33:29;;;;;;;;;;;;;;;30.65;47.71;99511.16;4465422;32;34018;-77
2023/08/26 05:35:57;;;;;;;;;;;;;;;30.98;46.81;99507.97;4468262;32;33425;-77
2023/08/26 05:38:24;;;;;;;;;;;;;;;30.77;47.36;99512.41;4466250;32;34262;-77
2023/08/26 05:40:51;;;;;;;;;;;;;;;30.70;47.74;99519.84;4463694;32;34212;-77
2023/08/26 05:43:19;;;;;;;;;;;;;;;30.92;47.34;99519.81;4466753;32;35084;-77
2023/08/26 05:45:47;;;;;;;;;;;;;;;31.17;46.92;99524.94;4467808;32;33584;-77
2023/08/26 05:48:14;;;;;;;;;;;;;;;31.05;47.32;99525.50;4464914;32;34559;-77
2023/08/26 05:50:43;;;;;;;;;;;;;;;31.05;47.45;99535.34;4465020;32;34780;-77
2023/08/26 05:53:10;;;;;;;;;;;;;;;31.17;47.06;99527.63;4468019;32;34287;-77
2023/08/26 05:55:42;;;;;;;;;;;;;;;31.03;47.39;99524.72;4466603;32;34343;-77
2023/08/26 05:58:09;;;;;;;;;;;;;;;31.59;46.42;99524.94;4458763;32;34898;-77
2023/08/26 06:00:37;;;;;;;;;;;;;;;31.10;47.59;99534.22;4465882;32;33946;-77
2023/08/26 06:03:04;;;;;;;;;;;;;;;31.40;47.12;99535.56;4466180;32;33878;-77
2023/08/26 06:05:31;;;;;;;;;;;;;;;30.76;48.50;99538.31;4463697;32;34333;-77
2023/08/26 06:07:59;;;;;;;;;;;;;;;31.63;46.85;99542.59;4467329;32;34744;-77
2023/08/26 06:10:27;;;;;;;;;;;;;;;31.10;48.32;99544.03;4466680;32;33118;-77
2023/08/26 06:12:55;;;;;;;;;;;;;;;31.52;47.50;99541.28;4461144;32;34412;-77
2023/08/26 06:15:23;;;;;;;;;;;;;;;31.62;47.38;99540.84;4465463;32;33308;-77
2023/08/26 06:17:52;;;;;;;;;;;;;;;31.63;47.66;99542.59;4467348;32;34299;-77
2023/08/26 06:20:20;;;;;;;15.93;10.07;;;;;;;32.20;46.40;99543.50;4462310;32;33586;-77
2023/08/26 06:22:47;;;;;;;43.00;27.40;;;;;;;32.36;44.80;99542.75;4467835;32;33788;-78
2023/08/26 06:25:15;;;;;;;15.77;9.95;;;;;;;31.87;45.52;99546.81;4464118;32;32651;-78
2023/08/26 06:27:43;;;;;;;27.33;17.05;;;;;;;32.12;45.15;99545.66;4460164;32;33795;-77
2023/08/26 06:30:11;;;;;;;47.67;30.90;;;;;;;32.27;44.72;99547.59;4466598;32;33825;-77
2023/08/26 06:32:39;;;;;;;20.37;10.68;;;;;;;32.37;44.21;99544.47;4461450;32;33464;-78
2023/08/26 06:35:08;;;;;;;12.10;7.95;;;;;;;32.42;44.16;99553.16;4465749;32;33147;-78
2023/08/26 06:37:35;;;;;;;38.55;32.65;;;;;;;32.29;43.39;99543.00;4457800;32;34027;-77
2023/08/26 06:40:03;;;;;;;;;;;;;;;32.41;43.64;99552.25;4464645;32;33721;-78
2023/08/26 06:42:32;;;;;;;23.17;15.57;;;;;;;32.81;43.28;99549.44;4469013;32;34679;-78
2023/08/26 06:45:02;;;;;;;36.50;22.20;;;;;;;32.75;43.49;99550.63;4461682;32;34843;-78
2023/08/26 06:47:30;;;;;;;29.42;21.92;;;;;;;32.98;43.00;99560.16;4463310;32;33653;-78
2023/08/26 06:49:58;;;;;;;22.13;15.95;;;;;;;32.45;44.23;99563.69;4468322;32;34454;-78
2023/08/26 06:52:27;;;;;;;15.05;10.05;;;;;;;32.17;44.91;99561.53;4468819;32;34887;-79
2023/08/26 06:54:55;;;;;;;47.10;29.23;;;;;;;32.75;43.74;99560.47;4469423;32;33718;-77
2023/08/26 06:57:23;;;;;;;36.63;23.98;;;;;;;33.23;42.88;99561.63;4468350;32;34014;-78
2023/08/26 06:59:50;;;;;;;20.65;13.20;;;;;;;33.49;42.03;99563.78;4459739;32;33900;-78
2023/08/26 07:02:27;;;;;;;17.52;11.85;;;;;;;33.45;41.89;99562.19;4468441;32;34716;-79
2023/08/26 07:04:55;;;;;;;44.75;28.15;;;;;;;33.60;41.17;99559.63;4468021;32;33127;-78
2023/08/26 07:07:22;;;;;;;11.55;7.18;;;;;;;33.53;41.62;99558.22;4469321;32;34186;-76
2023/08/26 07:09:50;;;;;;;28.10;20.50;;;;;;;33.78;41.13;99564.00;4468983;32;34031;-76
2023/08/26 07:12:17;;;;;;;24.17;19.42;;;;;;;33.67;41.61;99567.31;4467811;32;34035;-76
2023/08/26 07:14:45;;;;;;;24.45;17.30;;;;;;;33.64;40.94;99566.59;4465061;32;34571;-76
2023/08/26 07:17:15;;;;;;;33.70;22.30;;;;;;;33.93;40.89;99577.56;4475724;32;34362;-77
2023/08/26 07:19:43;;;;;;;13.75;9.05;;;;;;;34.06;40.56;99570.56;4471478;32;32946;-77
2023/08/26 07:22:11;;;;;;;15.00;6.30;;;;;;;34.28;40.15;99572.91;4466565;32;34681;-78
2023/08/26 07:24:39;;;;;;;14.77;11.93;;;;;;;34.44;39.61;99562.16;4467367;32;33536;-77
2023/08/26 07:27:06;;;;;;;20.83;18.52;;;;;;;34.70;39.01;99567.88;4464444;32;33999;-77
2023/08/26 07:29:34;;;;;;;13.68;8.80;;;;;;;33.97;40.00;99568.38;4469759;32;34034;-77
2023/08/26 07:32:01;;;;;;;15.10;9.63;;;;;;;34.36;39.59;99559.91;4465232;32;34817;-77
2023/08/26 07:34:29;;;;;;;13.82;10.85;;;;;;;35.09;38.71;99561.06;4475991;32;34094;-77
2023/08/26 07:36:58;;;;;;;16.20;11.60;;;;;;;35.09;38.50;99558.37;4466807;32;34599;-75
2023/08/26 07:39:25;;;;;;;22.27;14.38;;;;;;;34.95;38.77;99554.69;4464867;32;34060;-77
2023/08/26 07:41:53;;;;;;;29.75;18.67;;;;;;;35.38;38.49;99565.53;4468104;32;34057;-77
2023/08/26 07:44:21;;;;;;;50.60;29.83;;;;;;;35.53;38.16;99557.50;4468734;32;33428;-77
2023/08/26 07:46:50;;;;;;;25.75;16.73;;;;;;;35.69;37.68;99557.41;4467653;32;33976;-78
2023/08/26 07:49:20;;;;;;;140.65;100.30;;;;;;;35.69;38.06;99558.28;4467588;32;34023;-77
2023/08/26 07:51:48;;;;;;;51.05;40.40;;;;;;;35.89;37.65;99548.06;4466642;32;34109;-77
2023/08/26 07:54:15;;;;;;;30.90;25.30;;;;;;;36.38;37.28;99544.88;4467191;32;34458;-79
2023/08/26 07:56:43;;;;;;;39.70;29.25;;;;;;;36.61;37.06;99552.28;4467029;32;34608;-79
2023/08/26 07:59:10;;;;;;;26.05;15.63;;;;;;;36.87;36.68;99546.97;4468508;32;33668;-77
2023/08/26 08:01:38;;;;;;;63.72;40.30;;;;;;;36.74;36.42;99546.09;4468653;32;34149;-77
2023/08/26 08:04:06;;;;;;;51.55;31.83;;;;;;;37.16;35.87;99546.84;4457155;32;33611;-77
2023/08/26 08:06:33;;;;;;;21.23;12.75;;;;;;;36.83;36.65;99533.81;4468224;32;34779;-77
2023/08/26 08:09:01;;;;;;;20.95;15.43;;;;;;;37.26;36.28;99547.06;4468134;32;33694;-78
2023/08/26 08:11:29;;;;;;;30.35;22.87;;;;;;;37.74;35.38;99531.91;4464990;32;32535;-78
2023/08/26 08:13:56;;;;;;;13.60;9.05;;;;;;;37.72;35.27;99533.84;4466565;32;33586;-78
2023/08/26 08:16:24;;;;;;;60.90;50.00;;;;;;;37.94;33.20;99532.31;4467533;32;34442;-78
2023/08/26 08:18:55;;;;;;;15.18;11.25;;;;;;;38.64;32.68;99528.06;4467075;32;33494;-78
2023/08/26 08:21:22;;;;;;;9.93;7.18;;;;;;;38.13;32.66;99532.72;4467182;32;34179;-78
2023/08/26 08:23:50;;;;;;;9.90;6.12;;;;;;;38.07;32.96;99532.28;4467033;32;33654;-78
2023/08/26 08:26:18;;;;;;;12.95;10.00;;;;;;;38.48;32.13;99529.19;4464262;32;34583;-77
2023/08/26 08:28:46;;;;;;;14.07;8.93;;;;;;;39.33;30.99;99534.41;4462537;32;33588;-78
2023/08/26 08:31:13;;;;;;;12.52;8.32;;;;;;;39.13;31.59;99544.09;4466908;32;34140;-79
2023/08/26 08:33:41;;;;;;;12.65;8.20;;;;;;;39.35;30.73;99538.81;4466103;32;33615;-79
2023/08/26 08:36:08;;;;;;;12.35;8.75;;;;;;;39.80;30.45;99525.31;4461792;32;33741;-78
2023/08/26 08:38:36;;;;;;;12.10;6.90;;;;;;;39.80;30.13;99528.00;4450907;32;33768;-78
2023/08/26 08:41:04;;;;;;;11.98;7.87;;;;;;;39.23;29.78;99527.97;4467413;32;34883;-78
2023/08/26 08:43:31;;;;;;;10.75;6.93;;;;;;;39.88;30.16;99522.84;4466221;32;34557;-78
2023/08/26 08:45:59;;;;;;;9.15;6.28;;;;;;;40.14;28.26;99527.97;4463794;32;34287;-78
2023/08/26 08:48:28;;;;;;;9.75;6.47;;;;;;;40.09;29.10;99521.06;4464498;32;32741;-77
2023/08/26 08:50:57;;;;;;;9.25;6.97;;;;;;;39.80;29.56;99522.59;4466645;32;34244;-77
2023/08/26 08:53:30;;;;;;;11.73;6.72;;;;;;;40.36;29.07;99517.09;4461141;32;33479;-78
2023/08/26 08:56:00;;;;;;;9.82;6.60;;;;;;;40.95;28.38;99518.41;4464536;32;34090;-78
2023/08/26 08:58:28;;;;;;;14.13;6.75;;;;;;;39.91;28.77;99519.91;4463510;32;35713;-78
2023/08/26 09:00:57;;;;;;;10.70;6.90;;;;;;;40.44;29.17;99514.56;4465800;32;34145;-77
2023/08/26 09:03:25;;;;;;;17.10;7.18;;;;;;;40.65;29.09;99503.75;4454468;32;32797;-78
2023/08/26 09:05:53;;;;;;;13.25;7.25;;;;;;;41.21;28.37;99508.03;4467150;32;33771;-78
2023/08/26 09:08:23;;;;;;;10.52;7.30;;;;;;;41.15;28.28;99508.53;4463528;32;34007;-79
2023/08/26 09:10:51;;;;;;;10.32;6.82;;;;;;;41.19;28.32;99499.16;4469918;32;34668;-79
2023/08/26 09:13:18;;;;;;;10.93;6.93;;;;;;;41.41;27.71;99508.09;4470435;32;33992;-77
2023/08/26 09:15:46;;;;;;;12.32;6.62;;;;;;;42.21;27.86;99495.50;4470860;32;33997;-77
2023/08/26 09:18:15;;;;;;;8.07;6.65;;;;;;;41.99;27.93;99497.44;4468442;32;33533;-79
2023/08/26 09:20:45;;;;;;;9.90;7.15;;;;;;;42.29;27.56;99492.94;4466427;32;33725;-79
2023/08/26 09:23:14;;;;;;;75.25;45.85;;;;;;;42.36;26.93;99494.09;4465747;32;33997;-79
2023/08/26 09:25:55;;;;;;;23.33;20.85;;;;;;;42.90;26.80;99490.91;4459086;32;34453;-79
2023/08/26 09:28:26;;;;;;;17.33;8.88;;;;;;;42.64;26.24;99485.22;4466567;32;34615;-79
2023/08/26 09:31:07;;;;;;;14.27;11.18;;;;;;;42.93;25.97;99485.19;4468237;32;32672;-78
2023/08/26 09:33:35;;;;;;;12.07;8.80;;;;;;;42.71;26.55;99484.50;4469592;32;33176;-78
2023/08/26 09:36:02;;;;;;;20.67;17.75;;;;;;;43.29;25.90;99485.38;4470012;32;34556;-79
2023/08/26 09:38:44;;;;;;;10.90;9.43;;;;;;;43.10;26.29;99481.69;4463902;32;33153;-79
2023/08/26 09:41:19;;;;;;;12.80;7.95;;;;;;;43.46;25.88;99476.41;4460204;32;33430;-80
2023/08/26 09:43:47;;;;;;;13.25;8.60;;;;;;;43.95;24.96;99476.16;4463993;32;33786;-79
2023/08/26 09:46:19;;;;;;;28.58;25.27;;;;;;;43.72;25.14;99487.50;4460888;32;33829;-80
2023/08/26 09:48:48;;;;;;;9.77;7.80;;;;;;;44.11;24.83;99478.22;4466355;32;34261;-78
2023/08/26 09:51:27;;;;;;;14.02;11.90;;;;;;;44.43;23.64;99474.06;4463325;32;34225;-79
2023/08/26 09:53:54;;;;;;;11.63;8.55;;;;;;;44.51;23.61;99466.00;4469799;32;34152;-79
2023/08/26 09:56:25;;;;;;;18.95;16.15;;;;;;;44.43;24.47;99482.25;4468257;32;34172;-79
2023/08/26 09:58:53;;;;;;;16.45;14.87;;;;;;;44.25;23.69;99469.47;4463043;32;215799;-80
2023/08/26 10:01:22;;;;;;;11.45;10.00;;;;;;;43.49;23.99;99470.66;4468009;32;34062;-79
2023/08/26 10:03:53;;;;;;;12.20;7.70;;;;;;;43.22;24.13;99471.47;4465233;32;34063;-80
2023/08/26 10:06:23;;;;;;;8.90;7.65;;;;;;;43.51;23.53;99471.34;4468549;32;33952;-80
2023/08/26 10:09:00;;;;;;;11.20;8.93;;;;;;;43.08;23.76;99467.37;4469960;32;33850;-79
2023/08/26 10:11:29;;;;;;;11.65;8.00;;;;;;;43.62;23.57;99458.50;4466788;32;34293;-80
2023/08/26 10:13:57;;;;;;;9.00;7.50;;;;;;;44.17;24.05;99464.81;4466908;32;33791;-79
2023/08/26 10:16:24;;;;;;;;;;;;;;;44.22;23.00;99458.88;4466483;32;32641;-79
2023/08/26 10:19:03;;;;;;;11.77;6.87;;;;;;;44.73;22.71;99453.69;4461875;32;32509;-79
2023/08/26 10:21:31;;;;;;;13.82;12.13;;;;;;;44.91;23.22;99451.81;4463443;32;34711;-79
2023/08/26 10:24:00;;;;;;;9.30;7.43;;;;;;;44.51;23.13;99450.47;4466631;32;32158;-79
2023/08/26 10:26:28;;;;;;;10.18;7.40;;;;;;;45.05;23.53;99452.19;4467000;32;33954;-80
2023/08/26 10:28:56;;;;;;;9.63;8.00;;;;;;;45.34;22.92;99443.69;4461063;32;33961;-79
2023/08/26 10:31:43;;;;;;;9.77;7.28;;;;;;;44.61;23.03;99433.97;4465818;32;34175;-79
2023/08/26 10:34:10;;;;;;;14.77;6.90;;;;;;;45.07;22.42;99440.09;4464895;32;34278;-80
2023/08/26 10:36:39;;;;;;;9.88;7.18;;;;;;;45.01;22.40;99428.94;4462734;32;34560;-79
2023/08/26 10:39:15;;;;;;;9.35;7.53;;;;;;;45.04;21.58;99424.00;4465918;32;33728;-79
2023/08/26 10:42:02;;;;;;;;;;;;;;;45.35;22.20;99428.97;4465240;32;32996;-79
2023/08/26 10:44:30;;;;;;;18.80;16.92;;;;;;;45.55;21.63;99420.50;4461872;32;32000;-79
2023/08/26 10:46:58;;;;;;;;;;;;;;;46.07;21.27;99421.19;4464334;32;34436;-79
2023/08/26 10:49:28;;;;;;;;;;;;;;;46.33;20.87;99408.34;4467503;32;35019;-79
2023/08/26 10:52:22;;;;;;;;;;;;;;;46.28;20.64;99411.59;4463499;32;33433;-79
2023/08/26 10:54:49;;;;;;;;;;;;;;;46.42;20.02;99407.28;4465849;32;33050;-79
2023/08/26 10:57:17;;;;;;;;;;;;;;;46.48;20.52;99406.66;4468080;32;33921;-78
2023/08/26 10:59:44;;;;;;;;;;;;;;;46.69;20.96;99415.19;4464040;32;34182;-78
2023/08/26 11:02:12;;;;;;;;;;;;;;;46.68;19.87;99407.97;4468288;32;33754;-77
2023/08/26 11:04:43;;;;;;;;;;;;;;;47.06;19.77;99405.50;4474810;32;33256;-77
2023/08/26 11:07:16;;;;;;;;;;;;;;;47.00;19.63;99395.25;4470881;32;33974;-78
2023/08/26 11:09:46;;;;;;;7.82;6.35;;;;;;;46.76;19.97;99387.06;4463492;32;34386;-77
2023/08/26 11:12:29;;;;;;;10.30;6.70;;;;;;;47.15;19.43;99397.25;4467130;32;34064;-77
2023/08/26 11:15:06;;;;;;;10.35;6.45;;;;;;;46.97;19.37;99395.59;4467254;32;32827;-77
2023/08/26 11:17:34;;;;;;;14.57;11.23;;;;;;;45.95;20.73;99388.78;4464163;32;32903;-78
2023/08/26 11:20:18;;;;;;;12.00;8.50;;;;;;;45.68;20.26;99388.06;4465285;32;33864;-78
2023/08/26 11:22:46;;;;;;;14.95;9.35;;;;;;;46.44;19.60;99383.34;4463097;32;34011;-78
2023/08/26 11:25:17;;;;;;;10.55;6.50;;;;;;;46.08;20.13;99386.44;4455322;32;31948;-77
2023/08/26 11:27:44;;;;;;;;;;;;;;;46.10;19.86;99384.37;4466001;32;33572;-77
2023/08/26 11:30:12;;;;;;;;;;;;;;;46.74;19.31;99380.91;4465152;32;34839;-77
2023/08/26 11:32:39;;;;;;;;;;;;;;;46.90;19.13;99377.28;4464548;32;34212;-78
2023/08/26 11:35:08;;;;;;;;;;;;;;;45.60;19.09;99379.81;4468118;32;33650;-77
2023/08/26 11:37:38;;;;;;;;;;;;;;;45.97;19.36;99373.06;4466931;32;35914;-78
2023/08/26 11:40:06;;;;;;;;;;;;;;;46.65;19.60;99359.00;4463386;32;34292;-78
2023/08/26 11:42:33;;;;;;;;;;;;;;;47.04;18.91;99358.22;4465698;32;33808;-78
2023/08/26 11:45:01;;;;;;;;;;;;;;;45.92;19.10;99355.28;4450894;32;33639;-79
2023/08/26 11:47:29;;;;;;;;;;;;;;;45.05;19.95;99362.88;4466525;32;33838;-77
2023/08/26 11:49:56;;;;;;;;;;;;;;;45.55;19.85;99360.31;4467959;32;34298;-77
2023/08/26 11:52:36;;;;;;;;;;;;;;;45.26;20.34;99362.44;4462982;32;34404;-78
2023/08/26 11:55:04;;;;;;;;;;;;;;;45.60;20.40;99355.19;4463751;32;32559;-78
2023/08/26 11:57:41;;;;;;;;;;;;;;;45.63;20.37;99343.91;4465536;32;34266;-78
2023/08/26 12:00:12;;;;;;;;;;;;;;;46.23;19.62;99351.88;4466739;32;35804;-78
2023/08/26 12:02:47;;;;;;;;;;;;;;;45.70;20.16;99347.72;4467351;32;35201;-78
2023/08/26 12:05:18;;;;;;;;;;;;;;;46.55;19.43;99346.53;4469925;32;34915;-78
2023/08/26 12:07:46;;;;;;;;;;;;;;;46.54;19.39;99344.81;4465932;32;35229;-77
2023/08/26 12:10:14;;;;;;;;;;;;;;;46.33;19.90;99348.09;4468462;32;34229;-78
2023/08/26 12:12:41;;;;;;;;;;;;;;;45.91;20.27;99342.59;4464236;32;34278;-78
2023/08/26 12:15:10;;;;;;;;;;;;;;;46.48;19.94;99343.66;4469682;32;33328;-78
2023/08/26 12:17:54;;;;;;;;;;;;;;;46.62;19.31;99342.91;4469307;32;34827;-78
2023/08/26 12:20:24;;;;;;;;;;;;;;;46.33;19.65;99337.13;4472685;32;35027;-77